Main page
METAR-TAF:

METAR-TAF

Airports :

Orange County Airport

Orange, Texas, United States

latitude: 30-04-09N, longitude: 093-48-13W, elevation: 13 ft

Current weather observation

The report was made 21 minutes ago, at 22:15 UTC
Wind 10 mph from the South/Southwest with gusts up to 17 mph
Temperature 72°F
Humidity 88%
Pressure 29.73 in. Hg
Visibility: 5 miles
Overcast at a height of 400 ft
mist

METAR: KORG 252215Z AUTO 21009G15KT 5SM BR OVC004 22/20 A2973 RMK AO2 T02190202

Time: 16:36 (22:36 UTC)


TAF: missing

Weather observations and forecasts of more than 4000 airports (METAR and TAF reports).

The available stations are represented by yellow and red dots on the map.

Hover mouse over dot to see the name of the station.

Then click to see weather observations and forecasts.

To change the map : click on the green buttons with a black cross to zoom in, on the green button with a dash to zoom out, or on the green arrows for adjacent maps.


METAR-TAF: